sensor_id;sensor_type;location;lat;lon;timestamp;pressure;altitude;pressure_sealevel;temperature;humidity
1736;BME280;865;53.672;10.250;2023-04-19T00:00:06;102800.88;;;4.03;100.00
1736;BME280;865;53.672;10.250;2023-04-19T00:02:34;102799.47;;;4.11;100.00
1736;BME280;865;53.672;10.250;2023-04-19T00:05:01;102796.28;;;3.96;100.00
1736;BME280;865;53.672;10.250;2023-04-19T00:07:28;102793.38;;;3.88;100.00
1736;BME280;865;53.672;10.250;2023-04-19T00:09:54;102785.97;;;3.75;100.00
1736;BME280;865;53.672;10.250;2023-04-19T00:12:20;102789.34;;;3.74;100.00
1736;BME280;865;53.672;10.250;2023-04-19T00:14:47;102783.44;;;3.77;100.00
1736;BME280;865;53.672;10.250;2023-04-19T00:17:13;102789.53;;;3.79;100.00
1736;BME280;865;53.672;10.250;2023-04-19T00:19:39;102786.72;;;3.73;100.00
1736;BME280;865;53.672;10.250;2023-04-19T00:22:06;102788.34;;;3.71;100.00
1736;BME280;865;53.672;10.250;2023-04-19T00:24:33;102775.19;;;3.64;100.00
1736;BME280;865;53.672;10.250;2023-04-19T00:26:59;102781.31;;;3.67;100.00
1736;BME280;865;53.672;10.250;2023-04-19T00:29:27;102771.16;;;3.71;100.00
1736;BME280;865;53.672;10.250;2023-04-19T00:31:53;102765.22;;;3.74;100.00
1736;BME280;865;53.672;10.250;2023-04-19T00:34:19;102768.78;;;3.76;100.00
1736;BME280;865;53.672;10.250;2023-04-19T00:36:46;102766.75;;;3.69;100.00
1736;BME280;865;53.672;10.250;2023-04-19T00:39:12;102766.09;;;3.74;100.00
1736;BME280;865;53.672;10.250;2023-04-19T00:41:38;102765.94;;;3.70;100.00
1736;BME280;865;53.672;10.250;2023-04-19T00:44:05;102763.47;;;3.73;100.00
1736;BME280;865;53.672;10.250;2023-04-19T00:46:31;102768.78;;;3.76;100.00
1736;BME280;865;53.672;10.250;2023-04-19T00:48:58;102761.19;;;3.80;100.00
1736;BME280;865;53.672;10.250;2023-04-19T00:51:25;102765.72;;;3.86;100.00
1736;BME280;865;53.672;10.250;2023-04-19T00:53:52;102761.19;;;3.80;100.00
1736;BME280;865;53.672;10.250;2023-04-19T00:56:20;102767.25;;;3.81;100.00
1736;BME280;865;53.672;10.250;2023-04-19T00:58:47;102763.03;;;3.83;100.00
1736;BME280;865;53.672;10.250;2023-04-19T01:01:14;102766.44;;;3.82;100.00
1736;BME280;865;53.672;10.250;2023-04-19T01:03:42;102767.19;;;3.79;100.00
1736;BME280;865;53.672;10.250;2023-04-19T01:06:09;102766.31;;;3.79;100.00
1736;BME280;865;53.672;10.250;2023-04-19T01:08:35;102768.03;;;3.78;100.00
1736;BME280;865;53.672;10.250;2023-04-19T01:11:01;102770.66;;;3.80;100.00
1736;BME280;865;53.672;10.250;2023-04-19T01:13:28;102765.56;;;3.81;100.00
1736;BME280;865;53.672;10.250;2023-04-19T01:15:54;102768.38;;;3.87;100.00
1736;BME280;865;53.672;10.250;2023-04-19T01:18:21;102759.94;;;3.92;100.00
1736;BME280;865;53.672;10.250;2023-04-19T01:20:49;102764.72;;;3.82;100.00
1736;BME280;865;53.672;10.250;2023-04-19T01:23:16;102768.91;;;3.79;100.00
1736;BME280;865;53.672;10.250;2023-04-19T01:25:42;102766.06;;;3.73;100.00
1736;BME280;865;53.672;10.250;2023-04-19T01:28:08;102765.34;;;3.77;100.00
1736;BME280;865;53.672;10.250;2023-04-19T01:30:35;102766.59;;;3.65;100.00
1736;BME280;865;53.672;10.250;2023-04-19T01:33:01;102765.09;;;3.71;100.00
1736;BME280;865;53.672;10.250;2023-04-19T01:35:28;102760.78;;;3.70;100.00
1736;BME280;865;53.672;10.250;2023-04-19T01:37:54;102761.94;;;3.36;100.00
1736;BME280;865;53.672;10.250;2023-04-19T01:40:23;102761.66;;;3.30;100.00
1736;BME280;865;53.672;10.250;2023-04-19T01:42:50;102752.31;;;3.32;100.00
1736;BME280;865;53.672;10.250;2023-04-19T01:45:17;102754.28;;;3.37;100.00
1736;BME280;865;53.672;10.250;2023-04-19T01:47:43;102750.47;;;3.29;100.00
1736;BME280;865;53.672;10.250;2023-04-19T01:50:09;102755.97;;;3.37;100.00
1736;BME280;865;53.672;10.250;2023-04-19T01:52:36;102751.44;;;3.31;100.00
1736;BME280;865;53.672;10.250;2023-04-19T01:55:02;102752.75;;;3.22;100.00
1736;BME280;865;53.672;10.250;2023-04-19T01:57:29;102742.97;;;3.14;100.00
1736;BME280;865;53.672;10.250;2023-04-19T01:59:56;102746.50;;;3.16;100.00
1736;BME280;865;53.672;10.250;2023-04-19T02:02:22;102747.81;;;3.07;100.00
1736;BME280;865;53.672;10.250;2023-04-19T02:04:49;102757.16;;;3.05;100.00
1736;BME280;865;53.672;10.250;2023-04-19T02:07:15;102745.75;;;3.00;100.00
1736;BME280;865;53.672;10.250;2023-04-19T02:09:41;102748.44;;;3.01;100.00
1736;BME280;865;53.672;10.250;2023-04-19T02:12:08;102747.47;;;2.99;100.00
1736;BME280;865;53.672;10.250;2023-04-19T02:14:34;102744.47;;;2.90;100.00
1736;BME280;865;53.672;10.250;2023-04-19T02:17:01;102754.94;;;2.93;100.00
1736;BME280;865;53.672;10.250;2023-04-19T02:19:27;102740.59;;;3.00;100.00
1736;BME280;865;53.672;10.250;2023-04-19T02:21:53;102745.03;;;3.02;100.00
1736;BME280;865;53.672;10.250;2023-04-19T02:24:23;102741.44;;;2.99;100.00
1736;BME280;865;53.672;10.250;2023-04-19T02:26:49;102735.28;;;2.95;100.00
1736;BME280;865;53.672;10.250;2023-04-19T02:29:16;102737.75;;;2.93;100.00
1736;BME280;865;53.672;10.250;2023-04-19T02:31:44;102745.34;;;2.90;100.00
1736;BME280;865;53.672;10.250;2023-04-19T02:34:11;102748.28;;;2.79;100.00
1736;BME280;865;53.672;10.250;2023-04-19T02:36:37;102743.06;;;2.77;100.00
1736;BME280;865;53.672;10.250;2023-04-19T02:39:04;102741.63;;;2.84;100.00
1736;BME280;865;53.672;10.250;2023-04-19T02:41:30;102736.41;;;2.82;100.00
1736;BME280;865;53.672;10.250;2023-04-19T02:43:57;102736.50;;;2.84;100.00
1736;BME280;865;53.672;10.250;2023-04-19T02:46:23;102734.44;;;2.77;100.00
1736;BME280;865;53.672;10.250;2023-04-19T02:48:50;102740.28;;;2.72;100.00
1736;BME280;865;53.672;10.250;2023-04-19T02:51:16;102732.94;;;2.82;100.00
1736;BME280;865;53.672;10.250;2023-04-19T02:53:42;102729.59;;;2.83;100.00
1736;BME280;865;53.672;10.250;2023-04-19T02:56:09;102730.47;;;2.83;100.00
1736;BME280;865;53.672;10.250;2023-04-19T02:58:35;102730.47;;;2.83;100.00
1736;BME280;865;53.672;10.250;2023-04-19T03:01:02;102729.50;;;2.81;100.00
1736;BME280;865;53.672;10.250;2023-04-19T03:03:28;102725.22;;;2.82;100.00
1736;BME280;865;53.672;10.250;2023-04-19T03:05:55;102721.03;;;2.84;100.00
1736;BME280;865;53.672;10.250;2023-04-19T03:08:22;102723.03;;;2.91;100.00
1736;BME280;865;53.672;10.250;2023-04-19T03:10:48;102713.56;;;2.90;100.00
1736;BME280;865;53.672;10.250;2023-04-19T03:13:15;102710.75;;;2.85;100.00
1736;BME280;865;53.672;10.250;2023-04-19T03:15:41;102711.59;;;2.84;100.00
1736;BME280;865;53.672;10.250;2023-04-19T03:18:07;102713.41;;;2.87;100.00
1736;BME280;865;53.672;10.250;2023-04-19T03:20:34;102717.50;;;2.82;100.00
1736;BME280;865;53.672;10.250;2023-04-19T03:23:01;102716.41;;;2.77;100.00
1736;BME280;865;53.672;10.250;2023-04-19T03:25:27;102714.59;;;2.74;100.00
1736;BME280;865;53.672;10.250;2023-04-19T03:27:55;102711.94;;;2.72;100.00
1736;BME280;865;53.672;10.250;2023-04-19T03:30:22;102711.06;;;2.72;100.00
1736;BME280;865;53.672;10.250;2023-04-19T03:32:48;102701.50;;;2.69;100.00
1736;BME280;865;53.672;10.250;2023-04-19T03:35:14;102697.91;;;2.66;100.00
1736;BME280;865;53.672;10.250;2023-04-19T03:37:41;102697.91;;;2.66;100.00
1736;BME280;865;53.672;10.250;2023-04-19T03:40:08;102697.94;;;2.67;100.00
1736;BME280;865;53.672;10.250;2023-04-19T03:42:35;102697.91;;;2.66;100.00
1736;BME280;865;53.672;10.250;2023-04-19T03:45:01;102696.88;;;2.62;100.00
1736;BME280;865;53.672;10.250;2023-04-19T03:47:29;102697.53;;;2.58;100.00
1736;BME280;865;53.672;10.250;2023-04-19T03:49:56;102689.78;;;2.57;100.00
1736;BME280;865;53.672;10.250;2023-04-19T03:52:22;102691.47;;;2.56;100.00
1736;BME280;865;53.672;10.250;2023-04-19T03:54:50;102696.34;;;2.50;100.00
1736;BME280;865;53.672;10.250;2023-04-19T03:57:17;102696.03;;;2.44;100.00
1736;BME280;865;53.672;10.250;2023-04-19T03:59:43;102695.13;;;2.42;100.00
1736;BME280;865;53.672;10.250;2023-04-19T04:02:10;102693.47;;;2.44;100.00
1736;BME280;865;53.672;10.250;2023-04-19T04:04:36;102698.69;;;2.45;100.00
1736;BME280;865;53.672;10.250;2023-04-19T04:07:03;102694.00;;;2.37;100.00
1736;BME280;865;53.672;10.250;2023-04-19T04:09:30;102695.75;;;2.38;100.00
1736;BME280;865;53.672;10.250;2023-04-19T04:11:56;102693.56;;;2.45;100.00
1736;BME280;865;53.672;10.250;2023-04-19T04:14:23;102695.06;;;2.60;100.00
1736;BME280;865;53.672;10.250;2023-04-19T04:16:49;102692.00;;;2.68;100.00
1736;BME280;865;53.672;10.250;2023-04-19T04:19:16;102689.69;;;2.74;100.00
1736;BME280;865;53.672;10.250;2023-04-19T04:21:43;102682.97;;;2.78;100.00
1736;BME280;865;53.672;10.250;2023-04-19T04:24:09;102686.69;;;2.85;100.00
1736;BME280;865;53.672;10.250;2023-04-19T04:26:35;102684.38;;;2.91;100.00
1736;BME280;865;53.672;10.250;2023-04-19T04:29:04;102677.59;;;2.93;100.00
1736;BME280;865;53.672;10.250;2023-04-19T04:31:31;102679.94;;;3.08;100.00
1736;BME280;865;53.672;10.250;2023-04-19T04:33:57;102670.97;;;3.19;100.00
1736;BME280;865;53.672;10.250;2023-04-19T04:36:23;102676.31;;;3.24;100.00
1736;BME280;865;53.672;10.250;2023-04-19T04:38:51;102675.31;;;3.20;100.00
1736;BME280;865;53.672;10.250;2023-04-19T04:41:17;102673.94;;;3.28;100.00
1736;BME280;865;53.672;10.250;2023-04-19T04:43:48;102669.97;;;3.36;100.00
1736;BME280;865;53.672;10.250;2023-04-19T04:46:34;102671.34;;;3.49;100.00
1736;BME280;865;53.672;10.250;2023-04-19T04:49:00;102671.72;;;3.58;100.00
1736;BME280;865;53.672;10.250;2023-04-19T04:51:30;102666.03;;;3.67;100.00
1736;BME280;865;53.672;10.250;2023-04-19T04:53:57;102674.06;;;3.75;100.00
1736;BME280;865;53.672;10.250;2023-04-19T04:56:24;102659.22;;;3.90;100.00
1736;BME280;865;53.672;10.250;2023-04-19T04:58:52;102669.53;;;3.90;100.00
1736;BME280;865;53.672;10.250;2023-04-19T05:01:18;102661.78;;;3.90;100.00
1736;BME280;865;53.672;10.250;2023-04-19T05:03:45;102663.03;;;4.00;100.00
1736;BME280;865;53.672;10.250;2023-04-19T05:06:12;102662.19;;;4.01;100.00
1736;BME280;865;53.672;10.250;2023-04-19T05:08:38;102657.44;;;3.89;100.00
1736;BME280;865;53.672;10.250;2023-04-19T05:11:04;102658.63;;;3.97;100.00
1736;BME280;865;53.672;10.250;2023-04-19T05:13:31;102657.44;;;4.11;100.00
1736;BME280;865;53.672;10.250;2023-04-19T05:15:57;102655.00;;;4.16;100.00
1736;BME280;865;53.672;10.250;2023-04-19T05:18:25;102654.25;;;4.19;100.00
1736;BME280;865;53.672;10.250;2023-04-19T05:20:51;102654.69;;;4.31;100.00
1736;BME280;865;53.672;10.250;2023-04-19T05:23:17;102657.63;;;4.40;100.00
1736;BME280;865;53.672;10.250;2023-04-19T05:25:44;102657.75;;;4.43;100.00
1736;BME280;865;53.672;10.250;2023-04-19T05:28:10;102659.06;;;4.56;100.00
1736;BME280;865;53.672;10.250;2023-04-19T05:30:36;102656.63;;;4.61;100.00
1736;BME280;865;53.672;10.250;2023-04-19T05:33:03;102653.34;;;4.65;100.00
1736;BME280;865;53.672;10.250;2023-04-19T05:35:30;102650.38;;;4.78;100.00
1736;BME280;865;53.672;10.250;2023-04-19T05:37:56;102647.53;;;4.70;100.00
1736;BME280;865;53.672;10.250;2023-04-19T05:40:23;102647.19;;;4.85;100.00
1736;BME280;865;53.672;10.250;2023-04-19T05:42:49;102644.59;;;4.85;100.00
1736;BME280;865;53.672;10.250;2023-04-19T05:45:16;102635.47;;;4.96;100.00
1736;BME280;865;53.672;10.250;2023-04-19T05:47:44;102638.16;;;4.99;100.00
1736;BME280;865;53.672;10.250;2023-04-19T05:50:10;102639.78;;;5.21;100.00
1736;BME280;865;53.672;10.250;2023-04-19T05:52:37;102639.44;;;5.38;100.00
1736;BME280;865;53.672;10.250;2023-04-19T05:55:04;102637.94;;;5.44;100.00
1736;BME280;865;53.672;10.250;2023-04-19T05:57:30;102633.25;;;5.60;100.00
1736;BME280;865;53.672;10.250;2023-04-19T05:59:57;102636.94;;;5.68;100.00
1736;BME280;865;53.672;10.250;2023-04-19T06:02:23;102627.88;;;5.82;100.00
1736;BME280;865;53.672;10.250;2023-04-19T06:04:50;102632.66;;;5.96;100.00
1736;BME280;865;53.672;10.250;2023-04-19T06:07:16;102631.59;;;5.90;100.00
1736;BME280;865;53.672;10.250;2023-04-19T06:09:59;102632.38;;;5.88;100.00
1736;BME280;865;53.672;10.250;2023-04-19T06:12:25;102633.34;;;5.91;100.00
1736;BME280;865;53.672;10.250;2023-04-19T06:14:52;102642.44;;;6.06;100.00
1736;BME280;865;53.672;10.250;2023-04-19T06:17:19;102639.28;;;6.16;100.00
1736;BME280;865;53.672;10.250;2023-04-19T06:19:51;102627.50;;;6.27;100.00
1736;BME280;865;53.672;10.250;2023-04-19T06:22:17;102629.38;;;6.31;100.00
1736;BME280;865;53.672;10.250;2023-04-19T06:24:44;102635.59;;;6.38;100.00
1736;BME280;865;53.672;10.250;2023-04-19T06:27:15;102634.00;;;6.43;100.00
1736;BME280;865;53.672;10.250;2023-04-19T06:29:41;102633.56;;;6.58;100.00
1736;BME280;865;53.672;10.250;2023-04-19T06:32:08;102628.00;;;6.77;100.00
1736;BME280;865;53.672;10.250;2023-04-19T06:34:34;102635.63;;;7.04;100.00
1736;BME280;865;53.672;10.250;2023-04-19T06:37:01;102633.69;;;7.30;100.00
1736;BME280;865;53.672;10.250;2023-04-19T06:39:27;102632.69;;;7.25;100.00
1736;BME280;865;53.672;10.250;2023-04-19T06:41:53;102633.75;;;7.34;100.00
1736;BME280;865;53.672;10.250;2023-04-19T06:44:20;102635.47;;;7.33;100.00
1736;BME280;865;53.672;10.250;2023-04-19T06:46:46;102630.41;;;7.38;100.00
1736;BME280;865;53.672;10.250;2023-04-19T06:49:12;102634.03;;;7.44;100.00
1736;BME280;865;53.672;10.250;2023-04-19T06:51:39;102628.19;;;7.54;100.00
1736;BME280;865;53.672;10.250;2023-04-19T06:54:05;102636.41;;;7.73;100.00
1736;BME280;865;53.672;10.250;2023-04-19T06:56:39;102642.63;;;7.80;100.00
1736;BME280;865;53.672;10.250;2023-04-19T06:59:16;102635.81;;;7.85;100.00
1736;BME280;865;53.672;10.250;2023-04-19T07:01:43;102625.31;;;7.80;100.00
1736;BME280;865;53.672;10.250;2023-04-19T07:04:10;102630.53;;;7.80;100.00
1736;BME280;865;53.672;10.250;2023-04-19T07:06:38;102625.78;;;8.02;100.00
1736;BME280;865;53.672;10.250;2023-04-19T07:09:05;102629.38;;;8.08;100.00
1736;BME280;865;53.672;10.250;2023-04-19T07:11:32;102624.28;;;8.13;100.00
1736;BME280;865;53.672;10.250;2023-04-19T07:13:59;102618.97;;;8.07;100.00
1736;BME280;865;53.672;10.250;2023-04-19T07:16:26;102625.34;;;8.22;100.00
1736;BME280;865;53.672;10.250;2023-04-19T07:18:53;102624.66;;;8.31;100.00
1736;BME280;865;53.672;10.250;2023-04-19T07:21:19;102622.50;;;8.51;100.00
1736;BME280;865;53.672;10.250;2023-04-19T07:23:46;102616.47;;;8.54;100.00
1736;BME280;865;53.672;10.250;2023-04-19T07:26:12;102619.47;;;8.77;100.00
1736;BME280;865;53.672;10.250;2023-04-19T07:28:40;102622.09;;;8.77;100.00
1736;BME280;865;53.672;10.250;2023-04-19T07:31:06;102616.66;;;8.64;100.00
1736;BME280;865;53.672;10.250;2023-04-19T07:33:33;102609.88;;;8.74;100.00
1736;BME280;865;53.672;10.250;2023-04-19T07:35:59;102613.50;;;8.82;100.00
1736;BME280;865;53.672;10.250;2023-04-19T07:38:26;102620.69;;;8.96;100.00
1736;BME280;865;53.672;10.250;2023-04-19T07:40:53;102621.22;;;9.28;100.00
1736;BME280;865;53.672;10.250;2023-04-19T07:43:19;102619.41;;;9.22;100.00
1736;BME280;865;53.672;10.250;2023-04-19T07:45:45;102616.03;;;9.31;100.00
1736;BME280;865;53.672;10.250;2023-04-19T07:48:12;102613.44;;;9.29;100.00
1736;BME280;865;53.672;10.250;2023-04-19T07:50:38;102613.19;;;9.16;100.00
1736;BME280;865;53.672;10.250;2023-04-19T07:53:04;102608.19;;;9.28;100.00
1736;BME280;865;53.672;10.250;2023-04-19T07:55:31;102606.69;;;9.42;100.00
1736;BME280;865;53.672;10.250;2023-04-19T07:57:57;102600.56;;;9.39;100.00
1736;BME280;865;53.672;10.250;2023-04-19T08:00:24;102604.16;;;9.47;100.00
1736;BME280;865;53.672;10.250;2023-04-19T08:02:50;102604.41;;;9.65;100.00
1736;BME280;865;53.672;10.250;2023-04-19T08:05:17;102594.13;;;9.74;100.00
1736;BME280;865;53.672;10.250;2023-04-19T08:07:44;102603.03;;;9.92;100.00
1736;BME280;865;53.672;10.250;2023-04-19T08:10:11;102598.09;;;10.12;100.00
1736;BME280;865;53.672;10.250;2023-04-19T08:12:38;102597.53;;;10.37;100.00
1736;BME280;865;53.672;10.250;2023-04-19T08:15:25;102597.56;;;10.39;100.00
1736;BME280;865;53.672;10.250;2023-04-19T08:18:11;102597.47;;;10.30;100.00
1736;BME280;865;53.672;10.250;2023-04-19T08:20:38;102592.06;;;10.19;100.00
1736;BME280;865;53.672;10.250;2023-04-19T08:23:07;102594.41;;;9.94;100.00
1736;BME280;865;53.672;10.250;2023-04-19T08:25:49;102591.22;;;10.18;100.00
1736;BME280;865;53.672;10.250;2023-04-19T08:28:16;102594.88;;;10.33;100.00
1736;BME280;865;53.672;10.250;2023-04-19T08:30:43;102593.09;;;10.27;100.00
1736;BME280;865;53.672;10.250;2023-04-19T08:33:10;102588.13;;;10.50;100.00
1736;BME280;865;53.672;10.250;2023-04-19T08:35:37;102589.06;;;10.58;100.00
1736;BME280;865;53.672;10.250;2023-04-19T08:38:06;102581.03;;;10.38;100.00
1736;BME280;865;53.672;10.250;2023-04-19T08:40:33;102579.44;;;10.51;100.00
1736;BME280;865;53.672;10.250;2023-04-19T08:43:04;102581.25;;;10.60;100.00
1736;BME280;865;53.672;10.250;2023-04-19T08:45:31;102575.13;;;10.58;97.68
1736;BME280;865;53.672;10.250;2023-04-19T08:47:58;102566.59;;;10.71;98.89
1736;BME280;865;53.672;10.250;2023-04-19T08:50:28;102571.94;;;10.86;100.00
1736;BME280;865;53.672;10.250;2023-04-19T08:52:58;102564.91;;;10.82;100.00
1736;BME280;865;53.672;10.250;2023-04-19T08:55:46;102563.34;;;11.01;97.88
1736;BME280;865;53.672;10.250;2023-04-19T08:58:33;102557.03;;;10.76;95.36
1736;BME280;865;53.672;10.250;2023-04-19T09:01:19;102566.75;;;10.92;100.00
1736;BME280;865;53.672;10.250;2023-04-19T09:04:00;102555.53;;;11.04;96.16
1736;BME280;865;53.672;10.250;2023-04-19T09:06:47;102553.91;;;11.20;100.00
1736;BME280;865;53.672;10.250;2023-04-19T09:09:18;102560.44;;;10.67;83.91
1736;BME280;865;53.672;10.250;2023-04-19T09:12:14;102542.97;;;10.62;77.91
1736;BME280;865;53.672;10.250;2023-04-19T09:14:45;102540.50;;;10.74;83.27
1736;BME280;865;53.672;10.250;2023-04-19T09:17:27;102535.97;;;10.53;76.60
1736;BME280;865;53.672;10.250;2023-04-19T09:19:54;102535.16;;;10.60;79.55
1736;BME280;865;53.672;10.250;2023-04-19T09:22:20;102531.09;;;10.96;76.03
1736;BME280;865;53.672;10.250;2023-04-19T09:24:46;102531.03;;;10.91;60.58
1736;BME280;865;53.672;10.250;2023-04-19T09:27:28;102529.44;;;11.07;60.82
1736;BME280;865;53.672;10.250;2023-04-19T09:29:56;102524.28;;;11.16;59.87
1736;BME280;865;53.672;10.250;2023-04-19T09:32:23;102530.31;;;11.09;56.32
1736;BME280;865;53.672;10.250;2023-04-19T09:34:54;102530.28;;;11.06;58.22
1736;BME280;865;53.672;10.250;2023-04-19T09:37:22;102516.47;;;11.24;58.47
1736;BME280;865;53.672;10.250;2023-04-19T09:40:22;102540.88;;;11.26;54.74
1736;BME280;865;53.672;10.250;2023-04-19T09:42:48;102514.63;;;11.09;53.66
1736;BME280;865;53.672;10.250;2023-04-19T09:45:18;102513.06;;;11.31;52.74
1736;BME280;865;53.672;10.250;2023-04-19T09:48:04;102515.81;;;11.60;54.16
1736;BME280;865;53.672;10.250;2023-04-19T09:50:33;102502.72;;;11.51;53.44
1736;BME280;865;53.672;10.250;2023-04-19T09:53:19;102505.25;;;11.40;53.78
1736;BME280;865;53.672;10.250;2023-04-19T09:55:46;102493.97;;;11.54;52.39
1736;BME280;865;53.672;10.250;2023-04-19T09:58:27;102496.59;;;11.52;52.26
1736;BME280;865;53.672;10.250;2023-04-19T10:01:03;102499.25;;;11.60;52.76
1736;BME280;865;53.672;10.250;2023-04-19T10:03:33;102499.22;;;11.49;50.99
1736;BME280;865;53.672;10.250;2023-04-19T10:06:01;102487.84;;;11.44;49.95
1736;BME280;865;53.672;10.250;2023-04-19T10:08:39;102493.91;;;11.31;47.63
1736;BME280;865;53.672;10.250;2023-04-19T10:11:06;102481.69;;;11.31;47.26
1736;BME280;865;53.672;10.250;2023-04-19T10:13:32;102473.84;;;11.31;46.02
1736;BME280;865;53.672;10.250;2023-04-19T10:15:59;102482.66;;;11.49;48.04
1736;BME280;865;53.672;10.250;2023-04-19T10:18:41;102473.00;;;11.35;43.30
1736;BME280;865;53.672;10.250;2023-04-19T10:21:08;102476.56;;;11.51;46.19
1736;BME280;865;53.672;10.250;2023-04-19T10:23:36;102479.19;;;11.53;44.64
1736;BME280;865;53.672;10.250;2023-04-19T10:26:04;102476.56;;;11.50;43.87
1736;BME280;865;53.672;10.250;2023-04-19T10:28:34;102470.44;;;11.46;43.77
1736;BME280;865;53.672;10.250;2023-04-19T10:31:02;102458.22;;;11.40;41.52
1736;BME280;865;53.672;10.250;2023-04-19T10:33:34;102460.81;;;11.37;41.99
1736;BME280;865;53.672;10.250;2023-04-19T10:36:02;102455.63;;;11.47;41.33
1736;BME280;865;53.672;10.250;2023-04-19T10:38:47;102468.78;;;11.67;43.03
1736;BME280;865;53.672;10.250;2023-04-19T10:41:20;102460.88;;;11.45;41.85
1736;BME280;865;53.672;10.250;2023-04-19T10:48:53;102449.53;;;11.48;39.71
1736;BME280;865;53.672;10.250;2023-04-19T10:51:22;102451.16;;;11.20;40.40
1736;BME280;865;53.672;10.250;2023-04-19T10:54:02;102448.66;;;11.39;41.26
1736;BME280;865;53.672;10.250;2023-04-19T11:01:37;102447.81;;;11.45;41.79
1736;BME280;865;53.672;10.250;2023-04-19T11:04:06;102439.16;;;11.64;43.99
1736;BME280;865;53.672;10.250;2023-04-19T11:06:33;102439.19;;;11.78;40.38
1736;BME280;865;53.672;10.250;2023-04-19T11:09:00;102437.44;;;11.80;41.97
1736;BME280;865;53.672;10.250;2023-04-19T11:11:34;102426.03;;;11.57;41.96
1736;BME280;865;53.672;10.250;2023-04-19T11:14:04;102435.66;;;11.69;41.46
1736;BME280;865;53.672;10.250;2023-04-19T11:16:33;102442.66;;;11.71;40.96
1736;BME280;865;53.672;10.250;2023-04-19T11:19:18;102442.63;;;11.68;41.65
1736;BME280;865;53.672;10.250;2023-04-19T11:21:45;102428.75;;;11.84;42.48
1736;BME280;865;53.672;10.250;2023-04-19T11:24:12;102424.34;;;11.74;40.27
1736;BME280;865;53.672;10.250;2023-04-19T11:26:42;102413.91;;;11.80;41.10
1736;BME280;865;53.672;10.250;2023-04-19T11:29:09;102424.31;;;11.62;41.41
1736;BME280;865;53.672;10.250;2023-04-19T11:31:35;102413.88;;;11.65;42.99
1736;BME280;865;53.672;10.250;2023-04-19T11:34:02;102413.88;;;11.65;42.08
1736;BME280;865;53.672;10.250;2023-04-19T11:36:30;102415.59;;;11.49;41.30
1736;BME280;865;53.672;10.250;2023-04-19T11:38:57;102419.13;;;11.77;43.88
1736;BME280;865;53.672;10.250;2023-04-19T11:41:24;102400.00;;;11.81;43.30
1736;BME280;865;53.672;10.250;2023-04-19T11:43:50;102406.94;;;11.82;42.87
1736;BME280;865;53.672;10.250;2023-04-19T11:46:17;102404.31;;;11.67;41.13
1736;BME280;865;53.672;10.250;2023-04-19T11:48:51;102396.44;;;11.59;41.42
1736;BME280;865;53.672;10.250;2023-04-19T11:51:18;102422.56;;;11.52;40.75
1736;BME280;865;53.672;10.250;2023-04-19T11:53:45;102406.81;;;11.32;41.28
1736;BME280;865;53.672;10.250;2023-04-19T11:56:12;102403.38;;;11.45;41.65
1736;BME280;865;53.672;10.250;2023-04-19T11:58:41;102406.00;;;11.45;39.37
1736;BME280;865;53.672;10.250;2023-04-19T12:01:20;102398.19;;;11.62;40.67
1736;BME280;865;53.672;10.250;2023-04-19T12:03:49;102399.94;;;11.63;38.52
1736;BME280;865;53.672;10.250;2023-04-19T12:06:25;102390.28;;;11.40;39.03
1736;BME280;865;53.672;10.250;2023-04-19T12:08:53;102395.53;;;11.44;39.84
1736;BME280;865;53.672;10.250;2023-04-19T12:11:22;102393.81;;;11.59;40.86
1736;BME280;865;53.672;10.250;2023-04-19T12:14:11;102385.97;;;11.53;41.93
1736;BME280;865;53.672;10.250;2023-04-19T12:16:38;102378.16;;;11.58;43.03
1736;BME280;865;53.672;10.250;2023-04-19T12:19:15;102394.75;;;11.81;43.83
1736;BME280;865;53.672;10.250;2023-04-19T12:21:47;102377.28;;;11.62;41.46
1736;BME280;865;53.672;10.250;2023-04-19T12:24:14;102385.09;;;11.45;42.63
1736;BME280;865;53.672;10.250;2023-04-19T12:26:56;102388.59;;;11.58;42.13
1736;BME280;865;53.672;10.250;2023-04-19T12:29:25;102384.22;;;11.54;42.83
1736;BME280;865;53.672;10.250;2023-04-19T12:31:52;102385.94;;;11.50;40.79
1736;BME280;865;53.672;10.250;2023-04-19T12:34:18;102380.69;;;11.30;40.62
1736;BME280;865;53.672;10.250;2023-04-19T12:36:44;102368.53;;;11.54;40.48
1736;BME280;865;53.672;10.250;2023-04-19T12:39:11;102382.50;;;11.54;42.12
1736;BME280;865;53.672;10.250;2023-04-19T12:41:37;102383.31;;;11.33;41.22
1736;BME280;865;53.672;10.250;2023-04-19T12:44:04;102369.25;;;11.05;41.49
1736;BME280;865;53.672;10.250;2023-04-19T12:46:30;102371.91;;;11.13;42.57
1736;BME280;865;53.672;10.250;2023-04-19T12:48:56;102372.78;;;11.20;40.17
1736;BME280;865;53.672;10.250;2023-04-19T12:51:23;102359.69;;;11.10;40.79
1736;BME280;865;53.672;10.250;2023-04-19T12:53:49;102368.50;;;11.34;42.21
1736;BME280;865;53.672;10.250;2023-04-19T12:56:17;102359.81;;;11.36;40.93
1736;BME280;865;53.672;10.250;2023-04-19T12:58:43;102362.44;;;11.50;42.97
1736;BME280;865;53.672;10.250;2023-04-19T13:01:10;102345.91;;;11.54;41.45
1736;BME280;865;53.672;10.250;2023-04-19T13:03:36;102358.91;;;11.34;39.62
1736;BME280;865;53.672;10.250;2023-04-19T13:06:03;102356.31;;;11.34;42.47
1736;BME280;865;53.672;10.250;2023-04-19T13:08:31;102360.69;;;11.51;41.20
1736;BME280;865;53.672;10.250;2023-04-19T13:11:09;102346.75;;;11.41;41.36
1736;BME280;865;53.672;10.250;2023-04-19T13:13:36;102344.19;;;11.64;41.15
1736;BME280;865;53.672;10.250;2023-04-19T13:16:02;102354.59;;;11.43;40.65
1736;BME280;865;53.672;10.250;2023-04-19T13:18:28;102343.19;;;11.27;40.44
1736;BME280;865;53.672;10.250;2023-04-19T13:20:55;102345.00;;;11.48;41.93
1736;BME280;865;53.672;10.250;2023-04-19T13:23:21;102345.00;;;11.51;40.59
1736;BME280;865;53.672;10.250;2023-04-19T13:25:48;102334.53;;;11.38;41.61